Hartford, Connecticut
Traffic Map
Current Weather Conditions
Hartford, Connecticut
Few Clouds
Few Clouds

Feels Like: 2°
Wind Chill: Ceiling: Unl
Heat Index: Visibility: 10mi
Dew Point: -7° Wind: 10mph
Humidity: 41% Direction: 180° (S)
Pressure: 30.15in Gusts: 0mph
Raw Report DataKHFD 230253Z AUTO 18009KT 10SM FEW039 05/M07 A3015 RMK AO2 SLP210 T00501072 56010
Traffic Incident Summary
Active as of:
Severity:
Category:
InformationThere was an issue retrieving the traffic information for this location. Please try a different location or try again shortly.
Advertisements
Track Severe Weather on mobile